Time;durP1;ratioP1;P1;durP2;ratioP2;P2;SDS_P1;SDS_P2;PMS_P1;PMS_P2;Temp;Humidity;BMP_temperature;BMP_pressure;BME280_temperature;BME280_humidity;BME280_pressure;Samples;Min_cycle;Max_cycle;Signal;HPM_P1;HPM_P2
2021/12/20 00:01:56;;;;;;;0.20;0.20;;;;;;;19.55;44.62;102268.28;5165196;27;20042;-36
2021/12/20 00:04:22;;;;;;;0.20;0.20;;;;;;;19.58;44.63;102271.66;5144529;27;20429;-36
2021/12/20 00:06:47;;;;;;;0.20;0.20;;;;;;;19.58;44.85;102275.25;5165969;27;20179;-36
2021/12/20 00:09:13;;;;;;;0.20;0.20;;;;;;;19.58;44.87;102271.66;5163898;27;20088;-35
2021/12/20 00:11:38;;;;;;;0.20;0.20;;;;;;;19.57;44.82;102269.97;5165514;27;20284;-35
2021/12/20 00:14:04;;;;;;;0.20;0.20;;;;;;;19.57;44.78;102269.97;5146549;27;20049;-34
2021/12/20 00:16:30;;;;;;;0.20;0.20;;;;;;;19.58;44.79;102268.88;5147216;27;20039;-35
2021/12/20 00:18:55;;;;;;;0.20;0.20;;;;;;;19.58;44.88;102255.06;5147880;27;20480;-34
2021/12/20 00:21:22;;;;;;;0.20;0.20;;;;;;;19.57;44.59;102258.94;5142345;27;20717;-35
2021/12/20 00:23:47;;;;;;;0.20;0.20;;;;;;;19.57;44.85;102267.22;5121604;27;20450;-36
2021/12/20 00:26:13;;;;;;;0.20;0.20;;;;;;;19.56;44.63;102266.38;5144105;27;20459;-35
2021/12/20 00:28:39;;;;;;;0.20;0.20;;;;;;;19.58;44.66;102272.47;5142275;27;20039;-36
2021/12/20 00:31:05;;;;;;;0.20;0.20;;;;;;;19.59;44.66;102267.78;5141162;27;20102;-34
2021/12/20 00:33:33;;;;;;;0.20;0.20;;;;;;;19.58;44.79;102255.91;5141181;27;20472;-35
2021/12/20 00:36:01;;;;;;;0.20;0.20;;;;;;;19.59;44.62;102256.72;5135234;27;20393;-35
2021/12/20 00:41:12;;;;;;;0.10;0.10;;;;;;;19.58;44.85;102250.38;5110773;27;20404;-35
2021/12/20 00:43:38;;;;;;;0.20;0.20;;;;;;;19.58;44.58;102258.66;5142116;27;20047;-37
2021/12/20 00:46:04;;;;;;;0.20;0.20;;;;;;;19.59;44.91;102253.97;5140834;27;20036;-35
2021/12/20 00:48:29;;;;;;;0.20;0.20;;;;;;;19.59;44.89;102251.22;5141942;27;20059;-36
2021/12/20 00:50:55;;;;;;;0.20;0.20;;;;;;;19.58;45.00;102252.31;5137373;27;20054;-35
2021/12/20 00:53:22;;;;;;;0.20;0.20;;;;;;;19.57;44.63;102247.88;5124333;27;20534;-37
2021/12/20 00:55:48;;;;;;;0.20;0.20;;;;;;;19.57;44.86;102247.88;5123729;28;20036;-35
2021/12/20 00:58:14;;;;;;;0.20;0.20;;;;;;;19.59;44.62;102253.97;5125306;28;20047;-35
2021/12/20 01:00:43;;;;;;;0.20;0.20;;;;;;;19.58;44.51;102258.66;5130855;28;20051;-36
2021/12/20 01:03:10;;;;;;;0.20;0.20;;;;;;;19.58;44.88;102253.13;5104740;28;20051;-35
2021/12/20 01:05:38;;;;;;;0.20;0.20;;;;;;;19.58;44.96;102252.31;5107363;28;20143;-36
2021/12/20 01:08:05;;;;;;;0.20;0.20;;;;;;;19.56;44.86;102244.28;5127003;28;20666;-35
2021/12/20 01:10:32;;;;;;;0.20;0.20;;;;;;;19.58;44.85;102244.00;5126306;28;20446;-35
2021/12/20 01:13:00;;;;;;;0.20;0.20;;;;;;;19.58;44.56;102252.31;5125380;28;20046;-35
2021/12/20 01:15:39;;;;;;;0.20;0.20;;;;;;;19.58;44.71;102246.78;5128087;28;20039;-35
2021/12/20 01:18:05;;;;;;;0.20;0.20;;;;;;;19.57;44.67;102245.94;5107241;28;20054;-36
2021/12/20 01:20:32;;;;;;;0.20;0.20;;;;;;;19.57;44.94;102242.34;5128411;28;20051;-35
2021/12/20 01:22:58;;;;;;;0.20;0.20;;;;;;;19.57;44.54;102250.63;5127090;27;20045;-36
2021/12/20 01:25:25;;;;;;;0.20;0.20;;;;;;;19.57;44.99;102250.63;5111780;28;20078;-36
2021/12/20 01:27:52;;;;;;;0.20;0.20;;;;;;;19.57;44.87;102245.09;5125067;28;20039;-36
2021/12/20 01:30:20;;;;;;;0.20;0.20;;;;;;;19.57;44.58;102248.72;5109461;28;20111;-36
2021/12/20 01:32:46;;;;;;;0.20;0.20;;;;;;;19.57;45.12;102250.63;5127900;28;20035;-35
2021/12/20 01:35:13;;;;;;;0.20;0.20;;;;;;;19.58;44.76;102252.31;5124526;28;20092;-36
2021/12/20 01:37:38;;;;;;;0.20;0.20;;;;;;;19.57;44.96;102253.41;5123537;28;20107;-36
2021/12/20 01:40:06;;;;;;;0.20;0.20;;;;;;;19.56;44.60;102252.56;5109615;28;20436;-35
2021/12/20 01:42:34;;;;;;;0.20;0.20;;;;;;;19.56;44.92;102255.34;5125479;28;20472;-36
2021/12/20 01:45:00;;;;;;;0.10;0.10;;;;;;;19.56;44.82;102252.56;5108710;28;20309;-36
2021/12/20 01:47:29;;;;;;;0.20;0.20;;;;;;;19.55;44.85;102248.09;5123286;28;20393;-36
2021/12/20 01:50:17;;;;;;;0.20;0.20;;;;;;;19.57;44.92;102245.09;5110304;28;20058;-36
2021/12/20 01:52:42;;;;;;;0.20;0.20;;;;;;;19.57;44.85;102245.09;5108056;28;20051;-37
2021/12/20 01:55:11;;;;;;;0.20;0.20;;;;;;;19.59;44.76;102248.44;5123086;28;20072;-35
2021/12/20 01:57:37;;;;;;;0.20;0.20;;;;;;;19.58;44.91;102242.09;5108256;28;20099;-36
2021/12/20 02:00:08;;;;;;;0.20;0.20;;;;;;;19.58;44.83;102244.00;5124803;28;20323;-36
2021/12/20 02:02:34;;;;;;;0.20;0.20;;;;;;;19.58;44.53;102242.09;5107580;27;20103;-35
2021/12/20 02:05:11;;;;;;;0.20;0.20;;;;;;;19.57;44.75;102234.88;5124361;28;20061;-36
2021/12/20 02:07:50;;;;;;;0.20;0.20;;;;;;;19.56;44.68;102241.50;5107225;28;20043;-37
2021/12/20 02:10:17;;;;;;;0.20;0.20;;;;;;;19.57;44.79;102243.19;5110849;28;20444;-36
2021/12/20 02:12:43;;;;;;;0.20;0.20;;;;;;;19.56;44.86;102249.81;5105462;28;20047;-36
2021/12/20 02:15:09;;;;;;;0.20;0.20;;;;;;;19.56;44.68;102249.81;5124716;28;20418;-35
2021/12/20 02:17:35;;;;;;;0.20;0.20;;;;;;;19.58;44.64;102249.53;5124512;28;20059;-35
2021/12/20 02:20:03;;;;;;;0.20;0.20;;;;;;;19.56;44.88;102238.75;5106033;28;20442;-35
2021/12/20 02:22:29;;;;;;;0.10;0.10;;;;;;;19.57;44.75;102239.59;5126193;28;20466;-36
2021/12/20 02:24:54;;;;;;;0.20;0.20;;;;;;;19.56;44.64;102238.75;5123278;28;20053;-39
2021/12/20 02:27:22;;;;;;;0.20;0.20;;;;;;;19.58;44.53;102250.38;5125856;28;20046;-36
2021/12/20 02:30:03;;;;;;;0.20;0.20;;;;;;;19.57;44.65;102239.59;5125510;28;20061;-36
2021/12/20 02:38:17;;;;;;;0.20;0.20;;;;;;;19.56;44.75;102244.28;5108246;28;20047;-36
2021/12/20 02:40:44;;;;;;;0.20;0.20;;;;;;;19.56;44.87;102241.50;5125930;28;20043;-35
2021/12/20 02:43:12;;;;;;;0.20;0.20;;;;;;;19.56;44.66;102241.50;5104592;28;20378;-36
2021/12/20 02:45:39;;;;;;;0.20;0.20;;;;;;;19.57;44.60;102236.81;5124754;28;20057;-35
2021/12/20 02:48:10;;;;;;;0.20;0.20;;;;;;;19.56;44.66;102236.00;5118833;28;20154;-35
2021/12/20 02:50:35;;;;;;;0.20;0.20;;;;;;;19.56;44.90;102238.75;5125123;28;20481;-35
2021/12/20 02:53:01;;;;;;;0.20;0.20;;;;;;;19.55;44.92;102231.53;5119407;28;20051;-35
2021/12/20 02:55:26;;;;;;;0.20;0.20;;;;;;;19.56;44.48;102230.47;5122322;28;20040;-36
2021/12/20 02:57:52;;;;;;;0.20;0.20;;;;;;;19.56;44.61;102236.00;5125478;28;20035;-35
2021/12/20 03:00:18;;;;;;;0.20;0.20;;;;;;;19.56;44.94;102233.22;5124740;28;20150;-36
2021/12/20 03:02:44;;;;;;;0.20;0.20;;;;;;;19.56;44.71;102236.00;5126023;28;20047;-36
2021/12/20 03:05:11;;;;;;;0.20;0.20;;;;;;;19.56;44.66;102238.75;5122124;28;20091;-36
2021/12/20 03:07:46;;;;;;;0.20;0.20;;;;;;;19.58;44.70;102241.25;5126647;28;20438;-36
2021/12/20 03:10:12;;;;;;;0.20;0.20;;;;;;;19.57;44.78;102245.94;5094259;28;20534;-36
2021/12/20 03:12:38;;;;;;;0.20;0.20;;;;;;;19.56;44.54;102233.22;5104898;28;20400;-36
2021/12/20 03:15:11;;;;;;;0.20;0.20;;;;;;;19.57;44.73;102245.09;5108763;28;20044;-35
2021/12/20 03:17:37;;;;;;;0.20;0.20;;;;;;;19.55;44.78;102235.13;5106673;28;20050;-35
2021/12/20 03:20:04;;;;;;;0.20;0.20;;;;;;;19.56;44.78;102241.50;5125848;28;20046;-36
2021/12/20 03:22:29;;;;;;;0.20;0.20;;;;;;;19.55;44.70;102234.28;5121063;28;20767;-36
2021/12/20 03:24:55;;;;;;;0.20;0.20;;;;;;;19.55;44.95;102240.66;5122842;28;20047;-36
2021/12/20 03:27:21;;;;;;;0.20;0.20;;;;;;;19.55;44.63;102237.88;5120239;28;20513;-36
2021/12/20 03:29:46;;;;;;;0.20;0.20;;;;;;;19.56;44.89;102241.50;5103983;28;20046;-35
2021/12/20 03:32:12;;;;;;;0.20;0.20;;;;;;;19.57;44.73;102239.59;5104836;28;20043;-35
2021/12/20 03:34:38;;;;;;;0.20;0.20;;;;;;;19.56;44.61;102241.50;5117666;28;20047;-35
2021/12/20 03:37:04;;;;;;;0.20;0.20;;;;;;;19.55;44.89;102243.41;5103840;28;20047;-36
2021/12/20 03:39:29;;;;;;;0.20;0.20;;;;;;;19.56;44.60;102255.34;5105008;28;20053;-36
2021/12/20 03:41:55;;;;;;;0.20;0.20;;;;;;;19.56;44.89;102247.03;5102801;28;20052;-36
2021/12/20 03:44:21;;;;;;;0.20;0.20;;;;;;;19.56;44.79;102241.50;5118749;28;20035;-36
2021/12/20 03:46:46;;;;;;;0.20;0.20;;;;;;;19.57;44.86;102245.09;5123944;28;20043;-35
2021/12/20 03:49:12;;;;;;;0.20;0.20;;;;;;;19.58;44.91;102244.84;5122031;28;20043;-36
2021/12/20 03:51:38;;;;;;;0.20;0.20;;;;;;;19.55;44.87;102248.94;5102517;28;20051;-35
2021/12/20 03:54:04;;;;;;;0.20;0.20;;;;;;;19.55;44.85;102246.19;5118637;28;20089;-36
2021/12/20 03:56:30;;;;;;;0.20;0.20;;;;;;;19.56;44.94;102241.50;5123033;28;20395;-37
2021/12/20 03:58:56;;;;;;;0.20;0.20;;;;;;;19.55;44.51;102237.88;5119110;28;20055;-37
2021/12/20 04:01:22;;;;;;;0.20;0.20;;;;;;;19.56;44.81;102238.75;5102208;28;20092;-37
2021/12/20 04:03:49;;;;;;;0.20;0.20;;;;;;;19.57;44.53;102243.19;5122329;28;20047;-35
2021/12/20 04:06:15;;;;;;;0.20;0.20;;;;;;;19.55;44.91;102234.28;5104847;28;20039;-35
2021/12/20 04:08:41;;;;;;;0.20;0.20;;;;;;;19.56;44.65;102241.50;5117764;28;20509;-36
2021/12/20 04:11:07;;;;;;;0.20;0.20;;;;;;;19.56;44.53;102238.75;5087310;28;20497;-36
2021/12/20 04:13:33;;;;;;;0.20;0.20;;;;;;;19.56;44.63;102238.75;5118400;28;20124;-35
2021/12/20 04:15:59;;;;;;;0.20;0.20;;;;;;;19.55;44.52;102240.66;5121593;28;20484;-35
2021/12/20 04:18:26;;;;;;;0.22;0.22;;;;;;;19.57;44.48;102245.09;5119910;28;20127;-37
2021/12/20 04:20:52;;;;;;;0.20;0.20;;;;;;;19.56;44.83;102244.28;5104505;28;20046;-35
2021/12/20 04:23:18;;;;;;;0.20;0.20;;;;;;;19.58;44.58;102246.78;5098945;28;20050;-35
2021/12/20 04:25:44;;;;;;;0.20;0.20;;;;;;;19.57;44.87;102239.59;5106031;27;20044;-35
2021/12/20 04:28:10;;;;;;;0.20;0.20;;;;;;;19.56;44.80;102236.00;5122638;28;20054;-36
2021/12/20 04:30:35;;;;;;;0.20;0.20;;;;;;;19.56;44.73;102238.75;5119525;28;20387;-36
2021/12/20 04:33:01;;;;;;;0.20;0.20;;;;;;;19.56;44.81;102241.50;5121556;28;20054;-39
2021/12/20 04:35:27;;;;;;;0.20;0.20;;;;;;;19.57;44.99;102245.09;5124078;28;20043;-36
2021/12/20 04:37:53;;;;;;;0.20;0.20;;;;;;;19.56;44.63;102249.81;5103602;28;20155;-35
2021/12/20 04:40:21;;;;;;;0.20;0.20;;;;;;;19.57;44.73;102254.22;5127904;28;20473;-35
2021/12/20 04:42:49;;;;;;;0.20;0.20;;;;;;;19.55;44.86;102246.19;5122741;28;20050;-37
2021/12/20 04:45:15;;;;;;;0.20;0.20;;;;;;;19.56;44.61;102247.03;5122083;28;20035;-36
2021/12/20 04:47:41;;;;;;;0.20;0.20;;;;;;;19.55;44.87;102245.34;5106581;28;20097;-36
2021/12/20 04:50:08;;;;;;;0.20;0.20;;;;;;;19.55;44.54;102251.69;5089952;28;20043;-36
2021/12/20 04:52:33;;;;;;;0.20;0.20;;;;;;;19.55;44.77;102254.47;5124681;28;20051;-36
2021/12/20 04:54:59;;;;;;;0.20;0.20;;;;;;;19.54;44.58;102240.91;5121748;28;20035;-36
2021/12/20 04:57:25;;;;;;;0.20;0.20;;;;;;;19.54;44.81;102241.75;5121180;28;20047;-35
2021/12/20 04:59:51;;;;;;;0.20;0.20;;;;;;;19.54;44.80;102233.47;5123083;28;20358;-36
2021/12/20 05:02:16;;;;;;;0.20;0.20;;;;;;;19.55;44.86;102243.41;5108319;28;20824;-36
2021/12/20 05:04:42;;;;;;;0.20;0.20;;;;;;;19.55;44.89;102248.09;5122371;28;20039;-36
2021/12/20 05:07:08;;;;;;;0.20;0.20;;;;;;;19.55;44.91;102246.19;5123149;28;20044;-35
2021/12/20 05:09:38;;;;;;;0.20;0.20;;;;;;;19.55;44.66;102250.88;5122371;28;20934;-35
2021/12/20 05:12:14;;;;;;;0.20;0.20;;;;;;;19.56;44.81;102241.50;5103986;28;20050;-35
2021/12/20 05:14:43;;;;;;;0.20;0.20;;;;;;;19.55;44.82;102246.19;5121714;28;20043;-35
2021/12/20 05:17:10;;;;;;;0.20;0.20;;;;;;;19.55;44.74;102237.06;5085950;28;20488;-36
2021/12/20 05:19:36;;;;;;;0.20;0.20;;;;;;;19.57;44.89;102247.88;5090153;28;20051;-35
2021/12/20 05:22:02;;;;;;;0.20;0.20;;;;;;;19.56;44.98;102241.50;5122993;28;20054;-38
2021/12/20 05:24:27;;;;;;;0.20;0.20;;;;;;;19.55;44.90;102248.09;5101623;28;20047;-36
2021/12/20 05:26:53;;;;;;;0.20;0.20;;;;;;;19.55;44.80;102243.41;5121128;28;20052;-35
2021/12/20 05:29:19;;;;;;;0.20;0.20;;;;;;;19.56;44.66;102241.50;5106971;28;20097;-35
2021/12/20 05:31:45;;;;;;;0.20;0.20;;;;;;;19.55;44.49;102234.28;5105217;28;20062;-36
2021/12/20 05:34:11;;;;;;;0.20;0.20;;;;;;;19.56;44.69;102236.00;5123263;28;20043;-35
2021/12/20 05:36:36;;;;;;;0.20;0.20;;;;;;;19.57;44.65;102242.34;5125896;28;20620;-35
2021/12/20 05:39:03;;;;;;;0.20;0.20;;;;;;;19.55;45.03;102242.56;5118640;27;20112;-35
2021/12/20 05:41:29;;;;;;;0.20;0.20;;;;;;;19.56;44.58;102244.28;5124816;28;20557;-36
2021/12/20 05:43:55;;;;;;;0.20;0.20;;;;;;;19.56;44.68;102244.28;5104048;28;20040;-36
2021/12/20 05:46:21;;;;;;;0.20;0.20;;;;;;;19.56;44.86;102241.50;5125655;28;20043;-35
2021/12/20 05:48:46;;;;;;;0.28;0.28;;;;;;;19.57;44.96;102247.88;5103626;28;20050;-35
2021/12/20 05:51:13;;;;;;;0.20;0.20;;;;;;;19.56;44.97;102247.03;5123043;27;20058;-35
2021/12/20 05:53:39;;;;;;;0.20;0.20;;;;;;;19.55;44.52;102248.94;5120802;28;20043;-36
2021/12/20 05:56:05;;;;;;;0.20;0.20;;;;;;;19.55;44.58;102246.19;5127148;28;20070;-36
2021/12/20 05:58:30;;;;;;;0.20;0.20;;;;;;;19.56;44.98;102252.56;5122434;28;20043;-36
2021/12/20 06:00:56;;;;;;;0.20;0.20;;;;;;;19.56;44.80;102249.81;5125615;28;20100;-36
2021/12/20 06:03:22;;;;;;;0.20;0.20;;;;;;;19.56;44.86;102255.34;5118712;28;20043;-35
2021/12/20 06:05:48;;;;;;;0.20;0.20;;;;;;;19.55;44.58;102261.91;5125876;28;20417;-36
2021/12/20 06:08:14;;;;;;;0.20;0.20;;;;;;;19.54;44.66;102260.25;5123417;28;20043;-37
2021/12/20 06:10:39;;;;;;;0.20;0.20;;;;;;;19.54;44.64;102258.31;5123751;28;20043;-35
2021/12/20 06:13:06;;;;;;;0.20;0.20;;;;;;;19.55;44.69;102267.44;5122994;28;20039;-39
2021/12/20 06:15:32;;;;;;;0.20;0.20;;;;;;;19.57;44.71;102267.22;5123180;28;20047;-35
2021/12/20 06:17:57;;;;;;;0.20;0.20;;;;;;;19.54;44.83;102274.91;5122603;28;20394;-40
2021/12/20 06:20:24;;;;;;;0.20;0.20;;;;;;;19.55;44.68;102275.75;5106106;28;20035;-36
2021/12/20 06:22:49;;;;;;;0.20;0.20;;;;;;;19.55;44.73;102271.03;5103088;28;20129;-36
2021/12/20 06:25:16;;;;;;;0.20;0.20;;;;;;;19.55;44.77;102275.75;5103496;28;20071;-36
2021/12/20 06:27:42;;;;;;;0.20;0.20;;;;;;;19.56;44.74;102274.69;5086121;28;20078;-36
2021/12/20 06:30:09;;;;;;;0.20;0.20;;;;;;;19.57;44.82;102275.50;5122369;28;20043;-36
2021/12/20 06:32:36;;;;;;;0.20;0.20;;;;;;;19.54;44.58;102277.66;5086251;28;20043;-37
2021/12/20 06:35:22;;;;;;;0.20;0.20;;;;;;;19.54;44.88;102277.66;5109762;28;20123;-37
2021/12/20 06:37:58;;;;;;;0.20;0.20;;;;;;;19.55;44.52;102275.75;5118078;28;20051;-36
2021/12/20 06:40:24;;;;;;;0.20;0.20;;;;;;;19.55;44.58;102284.03;5120496;28;20528;-37
2021/12/20 06:42:50;;;;;;;0.20;0.20;;;;;;;19.55;44.65;102287.63;5121390;28;20480;-39
2021/12/20 06:45:16;;;;;;;0.20;0.20;;;;;;;19.55;44.64;102287.63;5119798;28;20497;-36
2021/12/20 06:47:42;;;;;;;0.20;0.20;;;;;;;19.55;44.73;102292.31;5112098;28;20055;-36
2021/12/20 06:50:08;;;;;;;0.10;0.10;;;;;;;19.56;44.44;102294.00;5100952;28;20469;-36
2021/12/20 06:52:33;;;;;;;0.20;0.20;;;;;;;19.55;44.73;102293.16;5119454;28;20043;-38
2021/12/20 06:54:59;;;;;;;0.20;0.20;;;;;;;19.55;44.68;102290.38;5112238;28;20067;-41
2021/12/20 06:57:25;;;;;;;0.20;0.20;;;;;;;19.56;44.54;102294.00;5116428;28;20069;-37
2021/12/20 06:59:51;;;;;;;0.20;0.20;;;;;;;19.57;44.60;102297.63;5114033;27;20043;-38
2021/12/20 07:02:17;;;;;;;0.20;0.20;;;;;;;19.55;44.40;102304.19;5112549;27;20039;-41
2021/12/20 07:04:43;;;;;;;0.20;0.20;;;;;;;19.55;44.56;102289.56;5112706;27;20058;-39
2021/12/20 07:07:09;;;;;;;0.20;0.20;;;;;;;19.55;44.62;102290.38;5092818;28;20335;-39
2021/12/20 07:09:35;;;;;;;0.20;0.20;;;;;;;19.55;44.61;102298.69;5091745;28;20146;-42
2021/12/20 07:12:02;;;;;;;0.20;0.20;;;;;;;19.57;44.43;102300.38;5105575;28;20763;-38
2021/12/20 07:14:28;;;;;;;0.17;0.17;;;;;;;19.55;44.62;102306.13;5112984;27;20142;-40
2021/12/20 07:16:54;;;;;;;0.20;0.20;;;;;;;19.55;44.52;102306.97;5117142;27;20364;-36
2021/12/20 07:19:20;;;;;;;0.20;0.20;;;;;;;19.56;44.68;102305.06;5097046;27;20578;-39
2021/12/20 07:21:46;;;;;;;0.20;0.20;;;;;;;19.57;44.48;102305.91;5112785;27;20081;-38
2021/12/20 07:24:12;;;;;;;0.20;0.20;;;;;;;19.56;44.48;102307.84;5115010;28;20495;-41
2021/12/20 07:26:40;;;;;;;0.20;0.20;;;;;;;19.55;44.35;102304.19;5111819;27;20466;-41
2021/12/20 07:29:06;;;;;;;0.20;0.20;;;;;;;19.55;44.33;102315.25;5095856;28;20266;-39
2021/12/20 07:31:32;;;;;;;0.20;0.20;;;;;;;19.54;44.55;102321.03;5113524;28;20417;-42
2021/12/20 07:33:57;;;;;;;0.20;0.20;;;;;;;19.55;44.73;102317.19;5112334;27;20062;-39
2021/12/20 07:36:24;;;;;;;0.20;0.20;;;;;;;19.58;44.18;102324.16;5109774;28;20039;-42
2021/12/20 07:38:50;;;;;;;0.20;0.20;;;;;;;19.60;44.15;102321.97;5107354;27;20047;-42
2021/12/20 07:41:18;;;;;;;0.20;0.20;;;;;;;19.56;43.68;102324.41;5095160;27;20244;-40
2021/12/20 07:43:44;;;;;;;0.20;0.20;;;;;;;19.61;43.81;102330.06;5088389;28;20051;-41
2021/12/20 07:46:09;;;;;;;0.20;0.20;;;;;;;19.60;44.11;102313.66;5110789;27;20054;-40
2021/12/20 07:48:35;;;;;;;0.20;0.20;;;;;;;19.60;43.88;102328.31;5105430;27;20065;-40
2021/12/20 07:51:01;;;;;;;0.20;0.20;;;;;;;19.61;44.17;102335.59;5117134;27;20051;-43
2021/12/20 07:53:27;;;;;;;0.20;0.20;;;;;;;19.62;44.04;102330.88;5103158;27;20662;-41
2021/12/20 07:55:53;;;;;;;0.20;0.20;;;;;;;19.60;44.06;102331.09;5097068;28;20094;-43
2021/12/20 07:58:19;;;;;;;0.20;0.20;;;;;;;19.63;44.31;102335.31;5103256;27;20120;-41
2021/12/20 08:00:45;;;;;;;0.20;0.20;;;;;;;19.63;44.24;102329.78;5112728;27;20042;-40
2021/12/20 08:03:12;;;;;;;0.20;0.20;;;;;;;19.64;44.25;102339.75;5098882;28;20043;-40
2021/12/20 08:05:37;;;;;;;0.20;0.20;;;;;;;19.64;44.28;102329.53;5107966;27;20047;-40
2021/12/20 08:08:04;;;;;;;0.20;0.20;;;;;;;19.65;44.07;102334.00;5108199;27;20542;-41
2021/12/20 08:10:30;;;;;;;0.20;0.20;;;;;;;19.63;43.11;102327.03;5116229;27;20039;-42
2021/12/20 08:12:55;;;;;;;0.20;0.20;;;;;;;19.21;36.87;102328.19;5097486;27;20366;-44
2021/12/20 08:15:22;;;;;;;0.20;0.20;;;;;;;19.33;39.64;102325.38;5099616;28;20050;-39
2021/12/20 08:17:49;;;;;;;0.20;0.20;;;;;;;19.49;41.27;102332.84;5116032;27;20111;-40
2021/12/20 08:20:14;;;;;;;0.20;0.20;;;;;;;19.58;42.00;102338.81;5120556;27;20058;-40
2021/12/20 08:22:45;;;;;;;0.20;0.20;;;;;;;19.63;42.09;102336.16;5107050;28;20188;-39
2021/12/20 08:25:10;;;;;;;0.20;0.20;;;;;;;19.66;41.68;102337.59;5096214;28;20049;-39
2021/12/20 08:27:36;;;;;;;0.20;0.20;;;;;;;19.67;42.22;102340.09;5111400;27;20047;-43
2021/12/20 08:30:03;;;;;;;0.20;0.20;;;;;;;19.69;42.11;102332.41;5116973;27;20047;-40
2021/12/20 08:32:29;;;;;;;0.20;0.20;;;;;;;19.70;42.34;102345.13;5122668;27;20051;-41
2021/12/20 08:34:55;;;;;;;0.20;0.20;;;;;;;19.73;42.16;102338.25;5120227;28;20124;-41
2021/12/20 08:37:20;;;;;;;0.20;0.20;;;;;;;19.74;42.10;102334.41;5117454;27;20146;-41
2021/12/20 08:39:46;;;;;;;0.20;0.20;;;;;;;19.75;41.90;102347.97;5117601;27;20137;-38
2021/12/20 08:42:12;;;;;;;0.20;0.20;;;;;;;19.76;42.44;102346.88;5121097;27;20054;-38
2021/12/20 08:44:38;;;;;;;0.20;0.20;;;;;;;19.77;42.25;102347.72;5118457;28;20046;-38
2021/12/20 08:47:04;;;;;;;0.20;0.20;;;;;;;19.78;42.35;102346.66;5100630;28;20085;-38
2021/12/20 08:49:30;;;;;;;0.20;0.20;;;;;;;19.79;42.07;102340.03;5121431;27;20051;-38
2021/12/20 08:51:56;;;;;;;0.20;0.20;;;;;;;19.80;42.18;102350.81;5122465;27;20461;-38
2021/12/20 08:54:24;;;;;;;0.20;0.20;;;;;;;19.81;42.21;102351.66;5113067;27;20051;-38
2021/12/20 08:56:51;;;;;;;0.20;0.20;;;;;;;19.83;42.31;102354.19;5121154;27;20064;-38
2021/12/20 08:59:16;;;;;;;0.20;0.20;;;;;;;19.84;42.36;102353.94;5088250;27;20520;-42
2021/12/20 09:01:42;;;;;;;0.20;0.20;;;;;;;19.84;42.36;102356.69;5120913;27;20055;-39
2021/12/20 09:04:08;;;;;;;0.20;0.20;;;;;;;19.85;42.55;102358.38;5117589;27;20043;-38
2021/12/20 09:06:38;;;;;;;0.20;0.20;;;;;;;19.87;42.60;102360.91;5114635;27;20133;-40
2021/12/20 09:09:05;;;;;;;0.20;0.20;;;;;;;19.88;42.66;102362.56;5118497;27;20043;-38
2021/12/20 09:11:31;;;;;;;0.20;0.20;;;;;;;19.89;42.41;102364.25;5097661;28;20377;-40
2021/12/20 09:14:06;;;;;;;0.20;0.20;;;;;;;19.89;42.06;102367.00;5110657;27;20130;-39
2021/12/20 09:16:32;;;;;;;0.20;0.20;;;;;;;19.92;42.25;102366.50;5095716;28;20666;-38
2021/12/20 09:18:58;;;;;;;0.20;0.20;;;;;;;19.91;42.49;102376.72;5113094;27;20426;-44
2021/12/20 09:21:24;;;;;;;0.20;0.20;;;;;;;19.93;42.33;102370.94;5110984;27;20504;-40
2021/12/20 09:23:49;;;;;;;0.20;0.20;;;;;;;19.97;41.87;102369.34;5108343;27;20172;-39
2021/12/20 09:26:18;;;;;;;0.20;0.20;;;;;;;20.01;42.09;102373.28;5114049;27;20046;-38
2021/12/20 09:28:44;;;;;;;0.10;0.10;;;;;;;19.99;42.23;102381.84;5102775;28;20432;-38
2021/12/20 09:31:10;;;;;;;0.20;0.20;;;;;;;19.98;42.67;102382.91;5117532;27;20051;-39
2021/12/20 09:33:35;;;;;;;0.20;0.20;;;;;;;19.97;42.30;102380.41;5114552;27;20055;-38
2021/12/20 09:36:05;;;;;;;0.20;0.20;;;;;;;19.99;42.51;102380.97;5101358;28;20055;-39
2021/12/20 09:38:31;;;;;;;0.20;0.20;;;;;;;19.98;42.50;102388.44;5098164;28;20476;-43
2021/12/20 09:41:13;;;;;;;0.20;0.20;;;;;;;20.00;42.45;102394.56;5111686;27;20039;-39
2021/12/20 09:43:47;;;;;;;0.20;0.20;;;;;;;20.00;42.36;102386.28;5114417;27;20039;-42
2021/12/20 09:46:14;;;;;;;0.20;0.20;;;;;;;20.01;42.44;102390.72;5098404;28;20050;-41
2021/12/20 09:48:46;;;;;;;0.20;0.20;;;;;;;20.01;42.35;102393.47;5094598;27;20064;-41
2021/12/20 09:51:12;;;;;;;0.20;0.20;;;;;;;20.03;42.60;102398.75;5103226;27;20335;-38
2021/12/20 09:53:38;;;;;;;0.20;0.20;;;;;;;20.03;42.43;102393.22;5081787;27;20506;-41
2021/12/20 09:56:04;;;;;;;0.20;0.20;;;;;;;20.03;42.57;102384.91;5116389;27;20060;-42
2021/12/20 09:58:35;;;;;;;0.20;0.20;;;;;;;20.00;41.36;102394.56;5100625;28;20556;-39
2021/12/20 10:01:01;;;;;;;0.20;0.20;;;;;;;20.08;42.20;102393.34;5103006;27;20047;-39
2021/12/20 10:03:28;;;;;;;0.20;0.20;;;;;;;20.11;42.16;102381.75;5099344;27;20055;-41
2021/12/20 10:05:57;;;;;;;0.10;0.10;;;;;;;20.10;42.12;102388.38;5098263;27;20050;-43
2021/12/20 10:08:32;;;;;;;0.10;0.10;;;;;;;20.10;41.91;102388.38;5118116;27;20057;-38
2021/12/20 10:11:00;;;;;;;0.10;0.10;;;;;;;20.12;42.37;102388.09;5117000;27;20051;-39
2021/12/20 10:13:29;;;;;;;0.20;0.20;;;;;;;20.12;42.04;102390.88;5116228;27;20472;-39
2021/12/20 10:15:56;;;;;;;0.20;0.20;;;;;;;20.12;42.18;102393.63;5104205;28;20039;-41
2021/12/20 10:18:23;;;;;;;0.20;0.20;;;;;;;20.13;41.93;102392.56;5118382;27;20058;-41
2021/12/20 10:20:51;;;;;;;0.20;0.20;;;;;;;20.13;41.89;102401.72;5101587;28;20035;-40
2021/12/20 10:23:20;;;;;;;0.20;0.20;;;;;;;20.14;42.05;102400.59;5115008;27;20047;-39
2021/12/20 10:25:51;;;;;;;0.20;0.20;;;;;;;20.15;42.14;102396.75;5119702;27;20291;-38
2021/12/20 10:28:19;;;;;;;0.20;0.20;;;;;;;20.15;41.96;102399.50;5119380;27;20096;-39
2021/12/20 10:30:47;;;;;;;0.20;0.20;;;;;;;20.15;42.34;102390.38;5117787;27;20043;-41
2021/12/20 10:33:16;;;;;;;0.20;0.20;;;;;;;20.17;42.07;102394.59;5117894;27;20488;-40
2021/12/20 10:35:47;;;;;;;;;;;;;;;20.23;41.90;102389.97;5092485;28;20130;-42
2021/12/20 10:38:25;;;;;;;0.20;0.20;;;;;;;20.24;41.45;102394.41;5107131;27;19950;-38
2021/12/20 10:41:02;;;;;;;0.20;0.20;;;;;;;20.28;41.07;102390.88;5107993;28;20080;-40
2021/12/20 10:43:33;;;;;;;0.20;0.20;;;;;;;20.26;41.48;102392.22;5083768;28;20047;-41
2021/12/20 10:45:58;;;;;;;0.20;0.20;;;;;;;20.24;41.32;102395.22;5085447;27;20051;-42
2021/12/20 10:48:42;;;;;;;0.20;0.20;;;;;;;20.25;41.52;102396.06;5096221;28;20616;-41
2021/12/20 10:51:16;;;;;;;0.20;0.20;;;;;;;20.25;41.49;102388.63;5117085;27;20051;-42
2021/12/20 10:53:47;;;;;;;0.20;0.20;;;;;;;20.26;41.60;102390.28;5104578;28;20043;-39
2021/12/20 10:56:13;;;;;;;0.20;0.20;;;;;;;20.26;41.83;102382.00;5120787;27;20103;-40
2021/12/20 10:58:52;;;;;;;0.20;0.20;;;;;;;20.28;41.57;102376.19;5115904;27;20040;-41
2021/12/20 11:04:16;;;;;;;0.20;0.20;;;;;;;20.34;39.58;102379.91;5103055;28;20043;-41
2021/12/20 11:07:00;;;;;;;0.10;0.10;;;;;;;20.34;40.06;102375.19;5099144;28;20048;-42
2021/12/20 11:09:30;;;;;;;0.20;0.20;;;;;;;20.41;40.25;102380.53;5110807;27;20055;-40
2021/12/20 11:11:59;;;;;;;0.20;0.20;;;;;;;20.41;40.65;102375.84;5102223;28;20718;-41
2021/12/20 11:14:29;;;;;;;0.20;0.20;;;;;;;20.40;40.79;102381.63;5096314;28;20055;-39
2021/12/20 11:16:57;;;;;;;0.20;0.20;;;;;;;20.40;40.64;102378.88;5099715;28;20050;-39
2021/12/20 11:19:25;;;;;;;0.20;0.20;;;;;;;20.40;41.05;102373.34;5100906;28;20043;-38
2021/12/20 11:22:09;;;;;;;0.20;0.20;;;;;;;20.39;40.74;102375.28;5106825;27;20054;-46
2021/12/20 11:24:39;;;;;;;0.20;0.20;;;;;;;20.41;41.04;102372.25;5090076;28;20067;-37
2021/12/20 11:27:16;;;;;;;0.20;0.20;;;;;;;20.41;41.30;102375.00;5118142;27;20050;-39
2021/12/20 11:29:43;;;;;;;0.20;0.20;;;;;;;20.41;41.28;102372.25;5103673;28;20428;-40
2021/12/20 11:32:09;;;;;;;0.20;0.20;;;;;;;20.41;41.20;102367.53;5121403;27;20499;-41
2021/12/20 11:34:38;;;;;;;0.20;0.20;;;;;;;20.41;41.29;102370.31;5099944;28;20390;-40
2021/12/20 11:37:03;;;;;;;0.20;0.20;;;;;;;20.41;41.17;102367.53;5121569;27;20047;-42